sensor_id;sensor_type;location;lat;lon;timestamp;P1;durP1;ratioP1;P2;durP2;ratioP2
79202;SDS011;68630;42.748;23.278;2023-09-19T00:01:47;12.00;;;4.83;;
79202;SDS011;68630;42.748;23.278;2023-09-19T00:04:14;12.40;;;4.83;;
79202;SDS011;68630;42.748;23.278;2023-09-19T00:06:44;11.97;;;5.03;;
79202;SDS011;68630;42.748;23.278;2023-09-19T00:09:13;17.65;;;4.90;;
79202;SDS011;68630;42.748;23.278;2023-09-19T00:11:40;8.33;;;5.20;;
79202;SDS011;68630;42.748;23.278;2023-09-19T00:14:08;9.65;;;4.97;;
79202;SDS011;68630;42.748;23.278;2023-09-19T00:16:35;12.88;;;6.25;;
79202;SDS011;68630;42.748;23.278;2023-09-19T00:19:03;10.32;;;6.67;;
79202;SDS011;68630;42.748;23.278;2023-09-19T00:21:32;13.78;;;6.55;;
79202;SDS011;68630;42.748;23.278;2023-09-19T00:24:00;13.08;;;6.62;;
79202;SDS011;68630;42.748;23.278;2023-09-19T00:26:28;11.35;;;6.92;;
79202;SDS011;68630;42.748;23.278;2023-09-19T00:28:55;9.48;;;6.00;;
79202;SDS011;68630;42.748;23.278;2023-09-19T00:31:24;10.25;;;5.80;;
79202;SDS011;68630;42.748;23.278;2023-09-19T00:33:52;12.28;;;6.62;;
79202;SDS011;68630;42.748;23.278;2023-09-19T00:36:21;11.50;;;6.80;;
79202;SDS011;68630;42.748;23.278;2023-09-19T00:38:49;9.88;;;6.83;;
79202;SDS011;68630;42.748;23.278;2023-09-19T00:41:17;12.73;;;6.70;;
79202;SDS011;68630;42.748;23.278;2023-09-19T00:43:44;12.85;;;6.65;;
79202;SDS011;68630;42.748;23.278;2023-09-19T00:46:16;12.93;;;7.50;;
79202;SDS011;68630;42.748;23.278;2023-09-19T00:48:45;11.57;;;7.33;;
79202;SDS011;68630;42.748;23.278;2023-09-19T00:51:13;10.50;;;7.05;;
79202;SDS011;68630;42.748;23.278;2023-09-19T00:53:43;18.25;;;7.22;;
79202;SDS011;68630;42.748;23.278;2023-09-19T00:56:12;11.83;;;6.97;;
79202;SDS011;68630;42.748;23.278;2023-09-19T00:58:42;11.55;;;6.35;;
79202;SDS011;68630;42.748;23.278;2023-09-19T01:01:09;11.83;;;6.03;;
79202;SDS011;68630;42.748;23.278;2023-09-19T01:03:38;10.38;;;6.28;;
79202;SDS011;68630;42.748;23.278;2023-09-19T01:06:06;12.90;;;6.58;;
79202;SDS011;68630;42.748;23.278;2023-09-19T01:08:34;12.50;;;7.10;;
79202;SDS011;68630;42.748;23.278;2023-09-19T01:13:48;13.83;;;8.20;;
79202;SDS011;68630;42.748;23.278;2023-09-19T01:16:33;13.45;;;7.78;;
79202;SDS011;68630;42.748;23.278;2023-09-19T01:21:44;17.32;;;7.40;;
79202;SDS011;68630;42.748;23.278;2023-09-19T01:27:17;14.38;;;7.40;;
79202;SDS011;68630;42.748;23.278;2023-09-19T01:29:49;15.48;;;7.53;;
79202;SDS011;68630;42.748;23.278;2023-09-19T01:32:18;15.15;;;7.05;;
79202;SDS011;68630;42.748;23.278;2023-09-19T01:37:24;11.55;;;7.40;;
79202;SDS011;68630;42.748;23.278;2023-09-19T01:40:00;9.93;;;6.47;;
79202;SDS011;68630;42.748;23.278;2023-09-19T01:47:37;16.30;;;6.97;;
79202;SDS011;68630;42.748;23.278;2023-09-19T01:50:38;11.70;;;6.67;;
79202;SDS011;68630;42.748;23.278;2023-09-19T01:55:50;10.72;;;7.15;;
79202;SDS011;68630;42.748;23.278;2023-09-19T01:58:39;10.75;;;7.22;;
79202;SDS011;68630;42.748;23.278;2023-09-19T02:01:10;12.65;;;7.50;;
79202;SDS011;68630;42.748;23.278;2023-09-19T02:03:41;14.90;;;7.92;;
79202;SDS011;68630;42.748;23.278;2023-09-19T02:06:16;14.25;;;9.00;;
79202;SDS011;68630;42.748;23.278;2023-09-19T02:08:47;13.05;;;8.08;;
79202;SDS011;68630;42.748;23.278;2023-09-19T02:11:15;11.05;;;7.83;;
79202;SDS011;68630;42.748;23.278;2023-09-19T02:13:43;14.45;;;8.35;;
79202;SDS011;68630;42.748;23.278;2023-09-19T02:16:11;18.92;;;8.90;;
79202;SDS011;68630;42.748;23.278;2023-09-19T02:18:39;15.18;;;8.60;;
79202;SDS011;68630;42.748;23.278;2023-09-19T02:21:06;15.18;;;8.40;;
79202;SDS011;68630;42.748;23.278;2023-09-19T02:23:35;14.38;;;7.92;;
79202;SDS011;68630;42.748;23.278;2023-09-19T02:26:03;16.23;;;8.43;;
79202;SDS011;68630;42.748;23.278;2023-09-19T02:28:31;17.02;;;8.90;;
79202;SDS011;68630;42.748;23.278;2023-09-19T02:30:59;14.65;;;8.25;;
79202;SDS011;68630;42.748;23.278;2023-09-19T02:33:28;16.67;;;8.85;;
79202;SDS011;68630;42.748;23.278;2023-09-19T02:35:57;12.30;;;8.83;;
79202;SDS011;68630;42.748;23.278;2023-09-19T02:38:25;17.52;;;9.98;;
79202;SDS011;68630;42.748;23.278;2023-09-19T02:40:53;16.32;;;7.65;;
79202;SDS011;68630;42.748;23.278;2023-09-19T02:43:23;15.40;;;8.90;;
79202;SDS011;68630;42.748;23.278;2023-09-19T02:45:51;25.43;;;9.13;;
79202;SDS011;68630;42.748;23.278;2023-09-19T02:48:22;16.90;;;8.95;;
79202;SDS011;68630;42.748;23.278;2023-09-19T02:50:54;25.02;;;9.80;;
79202;SDS011;68630;42.748;23.278;2023-09-19T02:53:22;25.77;;;8.63;;
79202;SDS011;68630;42.748;23.278;2023-09-19T02:55:50;15.63;;;8.38;;
79202;SDS011;68630;42.748;23.278;2023-09-19T02:58:18;16.82;;;9.28;;
79202;SDS011;68630;42.748;23.278;2023-09-19T03:00:46;13.72;;;8.70;;
79202;SDS011;68630;42.748;23.278;2023-09-19T03:03:15;17.23;;;9.25;;
79202;SDS011;68630;42.748;23.278;2023-09-19T03:05:48;12.90;;;8.15;;
79202;SDS011;68630;42.748;23.278;2023-09-19T03:08:17;18.20;;;8.75;;
79202;SDS011;68630;42.748;23.278;2023-09-19T03:10:42;14.10;;;8.75;;
79202;SDS011;68630;42.748;23.278;2023-09-19T03:13:11;12.30;;;8.33;;
79202;SDS011;68630;42.748;23.278;2023-09-19T03:15:42;14.87;;;8.70;;
79202;SDS011;68630;42.748;23.278;2023-09-19T03:18:11;20.05;;;9.50;;
79202;SDS011;68630;42.748;23.278;2023-09-19T03:20:39;18.02;;;8.88;;
79202;SDS011;68630;42.748;23.278;2023-09-19T03:23:07;20.85;;;10.05;;
79202;SDS011;68630;42.748;23.278;2023-09-19T03:25:38;26.10;;;9.58;;
79202;SDS011;68630;42.748;23.278;2023-09-19T03:28:06;16.70;;;9.18;;
79202;SDS011;68630;42.748;23.278;2023-09-19T03:30:35;20.30;;;9.40;;
79202;SDS011;68630;42.748;23.278;2023-09-19T03:33:04;15.80;;;8.95;;
79202;SDS011;68630;42.748;23.278;2023-09-19T03:35:31;20.48;;;10.28;;
79202;SDS011;68630;42.748;23.278;2023-09-19T03:38:00;22.95;;;8.65;;
79202;SDS011;68630;42.748;23.278;2023-09-19T03:40:28;20.60;;;9.40;;
79202;SDS011;68630;42.748;23.278;2023-09-19T03:42:56;20.75;;;9.48;;
79202;SDS011;68630;42.748;23.278;2023-09-19T03:45:25;18.30;;;10.40;;
79202;SDS011;68630;42.748;23.278;2023-09-19T03:47:53;23.62;;;10.63;;
79202;SDS011;68630;42.748;23.278;2023-09-19T03:50:20;19.07;;;10.45;;
79202;SDS011;68630;42.748;23.278;2023-09-19T03:52:48;15.00;;;9.05;;
79202;SDS011;68630;42.748;23.278;2023-09-19T03:55:16;27.93;;;9.58;;
79202;SDS011;68630;42.748;23.278;2023-09-19T03:57:47;20.08;;;10.75;;
79202;SDS011;68630;42.748;23.278;2023-09-19T04:00:15;18.85;;;10.55;;
79202;SDS011;68630;42.748;23.278;2023-09-19T04:02:44;19.25;;;10.65;;
79202;SDS011;68630;42.748;23.278;2023-09-19T04:05:11;20.50;;;10.25;;
79202;SDS011;68630;42.748;23.278;2023-09-19T04:07:39;21.60;;;11.08;;
79202;SDS011;68630;42.748;23.278;2023-09-19T04:10:07;19.57;;;10.95;;
79202;SDS011;68630;42.748;23.278;2023-09-19T04:12:37;26.40;;;11.60;;
79202;SDS011;68630;42.748;23.278;2023-09-19T04:15:05;22.67;;;11.50;;
79202;SDS011;68630;42.748;23.278;2023-09-19T04:17:34;27.73;;;11.73;;
79202;SDS011;68630;42.748;23.278;2023-09-19T04:20:01;20.62;;;12.82;;
79202;SDS011;68630;42.748;23.278;2023-09-19T04:22:31;19.40;;;10.00;;
79202;SDS011;68630;42.748;23.278;2023-09-19T04:24:58;27.00;;;11.08;;
79202;SDS011;68630;42.748;23.278;2023-09-19T04:27:26;27.77;;;10.23;;
79202;SDS011;68630;42.748;23.278;2023-09-19T04:29:55;33.75;;;10.35;;
79202;SDS011;68630;42.748;23.278;2023-09-19T04:32:28;23.62;;;9.15;;
79202;SDS011;68630;42.748;23.278;2023-09-19T04:34:58;27.42;;;9.43;;
79202;SDS011;68630;42.748;23.278;2023-09-19T04:37:27;25.27;;;8.75;;
79202;SDS011;68630;42.748;23.278;2023-09-19T04:39:54;20.72;;;7.80;;
79202;SDS011;68630;42.748;23.278;2023-09-19T04:42:22;17.23;;;7.70;;
79202;SDS011;68630;42.748;23.278;2023-09-19T04:44:51;22.25;;;8.93;;
79202;SDS011;68630;42.748;23.278;2023-09-19T04:47:18;40.70;;;9.10;;
79202;SDS011;68630;42.748;23.278;2023-09-19T04:49:47;27.32;;;9.08;;
79202;SDS011;68630;42.748;23.278;2023-09-19T04:52:15;30.85;;;9.93;;
79202;SDS011;68630;42.748;23.278;2023-09-19T04:54:42;31.12;;;11.90;;
79202;SDS011;68630;42.748;23.278;2023-09-19T04:57:11;30.23;;;10.23;;
79202;SDS011;68630;42.748;23.278;2023-09-19T04:59:39;25.05;;;10.53;;
79202;SDS011;68630;42.748;23.278;2023-09-19T05:02:09;28.00;;;10.13;;
79202;SDS011;68630;42.748;23.278;2023-09-19T05:04:37;28.07;;;11.55;;
79202;SDS011;68630;42.748;23.278;2023-09-19T05:07:05;47.48;;;14.47;;
79202;SDS011;68630;42.748;23.278;2023-09-19T05:09:32;29.20;;;15.65;;
79202;SDS011;68630;42.748;23.278;2023-09-19T05:12:00;30.23;;;14.85;;
79202;SDS011;68630;42.748;23.278;2023-09-19T05:14:28;35.08;;;15.93;;
79202;SDS011;68630;42.748;23.278;2023-09-19T05:16:55;34.33;;;14.20;;
79202;SDS011;68630;42.748;23.278;2023-09-19T05:21:55;39.05;;;12.65;;
79202;SDS011;68630;42.748;23.278;2023-09-19T05:24:24;28.85;;;11.70;;
79202;SDS011;68630;42.748;23.278;2023-09-19T05:26:52;33.55;;;11.60;;
79202;SDS011;68630;42.748;23.278;2023-09-19T05:29:21;30.05;;;11.83;;
79202;SDS011;68630;42.748;23.278;2023-09-19T05:31:48;22.90;;;9.90;;
79202;SDS011;68630;42.748;23.278;2023-09-19T05:34:16;21.27;;;9.35;;
79202;SDS011;68630;42.748;23.278;2023-09-19T05:36:49;28.90;;;9.98;;
79202;SDS011;68630;42.748;23.278;2023-09-19T05:39:14;33.67;;;10.30;;
79202;SDS011;68630;42.748;23.278;2023-09-19T05:41:42;18.98;;;7.97;;
79202;SDS011;68630;42.748;23.278;2023-09-19T05:44:15;22.02;;;8.50;;
79202;SDS011;68630;42.748;23.278;2023-09-19T05:46:48;18.20;;;7.70;;
79202;SDS011;68630;42.748;23.278;2023-09-19T05:49:13;19.62;;;7.75;;
79202;SDS011;68630;42.748;23.278;2023-09-19T05:51:41;28.32;;;7.80;;
79202;SDS011;68630;42.748;23.278;2023-09-19T05:54:09;26.10;;;7.28;;
79202;SDS011;68630;42.748;23.278;2023-09-19T05:56:37;19.10;;;6.70;;
79202;SDS011;68630;42.748;23.278;2023-09-19T05:59:04;23.22;;;7.35;;
79202;SDS011;68630;42.748;23.278;2023-09-19T06:01:32;18.77;;;6.67;;
79202;SDS011;68630;42.748;23.278;2023-09-19T06:03:59;20.43;;;5.42;;
79202;SDS011;68630;42.748;23.278;2023-09-19T06:06:27;12.55;;;5.65;;
79202;SDS011;68630;42.748;23.278;2023-09-19T06:08:55;11.00;;;5.22;;
79202;SDS011;68630;42.748;23.278;2023-09-19T06:11:23;26.90;;;5.40;;
79202;SDS011;68630;42.748;23.278;2023-09-19T06:16:21;12.10;;;5.20;;
79202;SDS011;68630;42.748;23.278;2023-09-19T06:21:27;13.18;;;5.53;;
79202;SDS011;68630;42.748;23.278;2023-09-19T06:23:56;14.25;;;6.08;;
79202;SDS011;68630;42.748;23.278;2023-09-19T06:26:24;14.80;;;6.15;;
79202;SDS011;68630;42.748;23.278;2023-09-19T06:31:29;7.95;;;4.15;;
79202;SDS011;68630;42.748;23.278;2023-09-19T06:33:54;11.73;;;3.92;;
79202;SDS011;68630;42.748;23.278;2023-09-19T06:36:22;12.88;;;3.95;;
79202;SDS011;68630;42.748;23.278;2023-09-19T06:38:49;8.40;;;4.00;;
79202;SDS011;68630;42.748;23.278;2023-09-19T06:41:17;11.97;;;4.17;;
79202;SDS011;68630;42.748;23.278;2023-09-19T06:43:47;9.80;;;3.95;;
79202;SDS011;68630;42.748;23.278;2023-09-19T06:46:17;33.85;;;8.38;;
79202;SDS011;68630;42.748;23.278;2023-09-19T06:48:45;20.57;;;5.80;;
79202;SDS011;68630;42.748;23.278;2023-09-19T06:51:14;10.30;;;4.75;;
79202;SDS011;68630;42.748;23.278;2023-09-19T06:53:43;12.70;;;5.20;;
79202;SDS011;68630;42.748;23.278;2023-09-19T06:56:11;18.50;;;5.97;;
79202;SDS011;68630;42.748;23.278;2023-09-19T06:58:39;12.98;;;5.35;;
79202;SDS011;68630;42.748;23.278;2023-09-19T07:01:15;13.05;;;5.28;;
79202;SDS011;68630;42.748;23.278;2023-09-19T07:03:43;18.45;;;6.35;;
79202;SDS011;68630;42.748;23.278;2023-09-19T07:06:11;12.70;;;6.00;;
79202;SDS011;68630;42.748;23.278;2023-09-19T07:08:40;17.12;;;5.45;;
79202;SDS011;68630;42.748;23.278;2023-09-19T07:11:08;10.48;;;4.67;;
79202;SDS011;68630;42.748;23.278;2023-09-19T07:13:38;13.60;;;4.45;;
79202;SDS011;68630;42.748;23.278;2023-09-19T07:16:05;12.90;;;4.45;;
79202;SDS011;68630;42.748;23.278;2023-09-19T07:18:34;10.72;;;4.25;;
79202;SDS011;68630;42.748;23.278;2023-09-19T07:21:02;12.15;;;4.70;;
79202;SDS011;68630;42.748;23.278;2023-09-19T07:23:33;11.40;;;4.22;;
79202;SDS011;68630;42.748;23.278;2023-09-19T07:26:01;8.23;;;3.92;;
79202;SDS011;68630;42.748;23.278;2023-09-19T07:28:30;12.40;;;4.42;;
79202;SDS011;68630;42.748;23.278;2023-09-19T07:31:05;11.70;;;4.35;;
79202;SDS011;68630;42.748;23.278;2023-09-19T07:33:30;14.28;;;5.10;;
79202;SDS011;68630;42.748;23.278;2023-09-19T07:35:58;16.52;;;4.55;;
79202;SDS011;68630;42.748;23.278;2023-09-19T07:38:28;15.90;;;4.72;;
79202;SDS011;68630;42.748;23.278;2023-09-19T07:41:05;12.47;;;4.50;;
79202;SDS011;68630;42.748;23.278;2023-09-19T07:57:13;11.08;;;4.35;;
79202;SDS011;68630;42.748;23.278;2023-09-19T07:59:43;6.65;;;3.70;;
79202;SDS011;68630;42.748;23.278;2023-09-19T08:02:12;8.38;;;3.80;;
79202;SDS011;68630;42.748;23.278;2023-09-19T08:07:20;11.10;;;3.50;;
79202;SDS011;68630;42.748;23.278;2023-09-19T08:09:56;10.93;;;3.70;;
79202;SDS011;68630;42.748;23.278;2023-09-19T08:12:29;11.05;;;3.60;;
79202;SDS011;68630;42.748;23.278;2023-09-19T08:17:28;12.13;;;4.00;;
79202;SDS011;68630;42.748;23.278;2023-09-19T08:20:03;7.05;;;3.75;;
79202;SDS011;68630;42.748;23.278;2023-09-19T08:22:28;12.53;;;4.35;;
79202;SDS011;68630;42.748;23.278;2023-09-19T08:24:57;7.60;;;3.52;;
79202;SDS011;68630;42.748;23.278;2023-09-19T08:27:26;9.05;;;4.10;;
79202;SDS011;68630;42.748;23.278;2023-09-19T08:29:54;7.35;;;3.70;;
79202;SDS011;68630;42.748;23.278;2023-09-19T08:32:28;9.85;;;3.90;;
79202;SDS011;68630;42.748;23.278;2023-09-19T08:37:24;11.25;;;4.70;;
79202;SDS011;68630;42.748;23.278;2023-09-19T08:39:52;9.73;;;4.50;;
79202;SDS011;68630;42.748;23.278;2023-09-19T08:42:21;11.95;;;4.40;;
79202;SDS011;68630;42.748;23.278;2023-09-19T08:52:40;6.70;;;4.25;;
79202;SDS011;68630;42.748;23.278;2023-09-19T08:58:20;10.88;;;4.95;;
79202;SDS011;68630;42.748;23.278;2023-09-19T09:03:08;10.93;;;4.28;;
79202;SDS011;68630;42.748;23.278;2023-09-19T09:05:38;14.83;;;4.62;;
79202;SDS011;68630;42.748;23.278;2023-09-19T09:08:10;12.93;;;4.67;;
79202;SDS011;68630;42.748;23.278;2023-09-19T09:13:14;12.85;;;4.92;;
79202;SDS011;68630;42.748;23.278;2023-09-19T09:15:46;9.55;;;4.00;;
79202;SDS011;68630;42.748;23.278;2023-09-19T09:18:19;9.45;;;4.35;;
79202;SDS011;68630;42.748;23.278;2023-09-19T09:20:58;10.03;;;4.60;;
79202;SDS011;68630;42.748;23.278;2023-09-19T09:23:22;16.00;;;5.28;;
79202;SDS011;68630;42.748;23.278;2023-09-19T09:25:52;11.60;;;4.70;;
79202;SDS011;68630;42.748;23.278;2023-09-19T09:28:22;9.75;;;4.55;;
79202;SDS011;68630;42.748;23.278;2023-09-19T09:30:53;13.93;;;4.97;;
79202;SDS011;68630;42.748;23.278;2023-09-19T09:33:23;17.25;;;4.50;;
79202;SDS011;68630;42.748;23.278;2023-09-19T09:41:07;30.57;;;5.42;;
79202;SDS011;68630;42.748;23.278;2023-09-19T09:43:39;11.57;;;4.62;;
79202;SDS011;68630;42.748;23.278;2023-09-19T09:46:14;10.85;;;5.05;;
79202;SDS011;68630;42.748;23.278;2023-09-19T09:51:34;9.40;;;4.72;;
79202;SDS011;68630;42.748;23.278;2023-09-19T09:54:15;16.00;;;4.60;;
79202;SDS011;68630;42.748;23.278;2023-09-19T09:57:04;11.40;;;5.22;;
79202;SDS011;68630;42.748;23.278;2023-09-19T10:02:18;9.78;;;4.75;;
79202;SDS011;68630;42.748;23.278;2023-09-19T10:07:25;23.85;;;4.92;;
79202;SDS011;68630;42.748;23.278;2023-09-19T10:09:56;13.05;;;5.15;;
79202;SDS011;68630;42.748;23.278;2023-09-19T10:33:13;13.22;;;4.50;;
79202;SDS011;68630;42.748;23.278;2023-09-19T10:43:32;12.43;;;4.58;;
79202;SDS011;68630;42.748;23.278;2023-09-19T10:46:02;10.08;;;4.45;;
79202;SDS011;68630;42.748;23.278;2023-09-19T10:48:37;13.88;;;4.28;;
79202;SDS011;68630;42.748;23.278;2023-09-19T10:54:05;11.50;;;3.98;;
79202;SDS011;68630;42.748;23.278;2023-09-19T10:56:37;9.28;;;4.28;;
79202;SDS011;68630;42.748;23.278;2023-09-19T10:59:12;10.60;;;4.20;;
79202;SDS011;68630;42.748;23.278;2023-09-19T11:21:31;13.65;;;4.53;;
79202;SDS011;68630;42.748;23.278;2023-09-19T11:31:54;13.43;;;4.75;;
79202;SDS011;68630;42.748;23.278;2023-09-19T11:37:03;10.13;;;4.85;;
79202;SDS011;68630;42.748;23.278;2023-09-19T11:53:02;13.38;;;4.58;;
79202;SDS011;68630;42.748;23.278;2023-09-19T11:55:31;8.75;;;4.22;;
79202;SDS011;68630;42.748;23.278;2023-09-19T12:00:35;13.03;;;4.62;;
79202;SDS011;68630;42.748;23.278;2023-09-19T12:08:17;13.98;;;5.28;;
79202;SDS011;68630;42.748;23.278;2023-09-19T12:13:50;7.92;;;4.92;;
79202;SDS011;68630;42.748;23.278;2023-09-19T12:16:21;15.75;;;5.90;;
79202;SDS011;68630;42.748;23.278;2023-09-19T12:32:19;16.80;;;4.75;;
79202;SDS011;68630;42.748;23.278;2023-09-19T12:37:47;12.58;;;5.55;;
79202;SDS011;68630;42.748;23.278;2023-09-19T12:42:44;16.02;;;5.10;;
79202;SDS011;68630;42.748;23.278;2023-09-19T13:01:15;13.62;;;5.90;;
79202;SDS011;68630;42.748;23.278;2023-09-19T13:03:50;14.55;;;6.42;;
79202;SDS011;68630;42.748;23.278;2023-09-19T13:11:35;12.68;;;5.33;;
79202;SDS011;68630;42.748;23.278;2023-09-19T13:30:46;13.95;;;5.35;;
79202;SDS011;68630;42.748;23.278;2023-09-19T13:38:25;16.82;;;5.62;;
79202;SDS011;68630;42.748;23.278;2023-09-19T13:48:36;15.30;;;5.37;;
79202;SDS011;68630;42.748;23.278;2023-09-19T13:51:07;13.70;;;5.75;;
79202;SDS011;68630;42.748;23.278;2023-09-19T13:53:36;16.30;;;5.95;;
79202;SDS011;68630;42.748;23.278;2023-09-19T13:56:25;21.20;;;5.70;;
79202;SDS011;68630;42.748;23.278;2023-09-19T13:58:56;14.90;;;5.90;;
79202;SDS011;68630;42.748;23.278;2023-09-19T14:06:31;9.53;;;5.62;;
79202;SDS011;68630;42.748;23.278;2023-09-19T14:09:00;13.40;;;6.12;;
79202;SDS011;68630;42.748;23.278;2023-09-19T14:22:24;15.20;;;5.00;;
79202;SDS011;68630;42.748;23.278;2023-09-19T14:25:22;13.03;;;5.90;;
79202;SDS011;68630;42.748;23.278;2023-09-19T14:35:44;15.83;;;6.08;;
79202;SDS011;68630;42.748;23.278;2023-09-19T14:43:26;12.95;;;6.25;;
79202;SDS011;68630;42.748;23.278;2023-09-19T14:51:08;15.85;;;5.92;;
79202;SDS011;68630;42.748;23.278;2023-09-19T14:56:13;21.95;;;6.17;;
79202;SDS011;68630;42.748;23.278;2023-09-19T15:01:18;22.05;;;6.30;;
79202;SDS011;68630;42.748;23.278;2023-09-19T15:08:57;17.65;;;6.28;;
79202;SDS011;68630;42.748;23.278;2023-09-19T15:11:26;21.23;;;6.62;;
79202;SDS011;68630;42.748;23.278;2023-09-19T15:13:53;18.07;;;6.03;;
79202;SDS011;68630;42.748;23.278;2023-09-19T15:16:25;19.02;;;6.33;;
79202;SDS011;68630;42.748;23.278;2023-09-19T15:19:13;13.58;;;5.42;;
79202;SDS011;68630;42.748;23.278;2023-09-19T15:21:49;31.45;;;6.28;;
79202;SDS011;68630;42.748;23.278;2023-09-19T15:24:19;15.43;;;5.83;;
79202;SDS011;68630;42.748;23.278;2023-09-19T15:26:47;19.67;;;6.50;;
79202;SDS011;68630;42.748;23.278;2023-09-19T15:34:48;17.37;;;5.75;;
79202;SDS011;68630;42.748;23.278;2023-09-19T15:45:33;13.05;;;5.65;;
79202;SDS011;68630;42.748;23.278;2023-09-19T15:50:47;16.50;;;5.70;;
79202;SDS011;68630;42.748;23.278;2023-09-19T15:53:12;17.80;;;6.20;;
79202;SDS011;68630;42.748;23.278;2023-09-19T15:58:19;13.70;;;6.92;;
79202;SDS011;68630;42.748;23.278;2023-09-19T16:05:57;16.40;;;5.97;;
79202;SDS011;68630;42.748;23.278;2023-09-19T16:08:32;24.02;;;6.22;;
79202;SDS011;68630;42.748;23.278;2023-09-19T16:16:12;17.82;;;6.08;;
79202;SDS011;68630;42.748;23.278;2023-09-19T16:18:52;13.98;;;6.67;;
79202;SDS011;68630;42.748;23.278;2023-09-19T16:21:21;14.87;;;5.65;;
79202;SDS011;68630;42.748;23.278;2023-09-19T16:23:52;12.47;;;5.83;;
79202;SDS011;68630;42.748;23.278;2023-09-19T16:26:26;17.77;;;6.20;;
79202;SDS011;68630;42.748;23.278;2023-09-19T16:37:32;13.13;;;5.72;;
79202;SDS011;68630;42.748;23.278;2023-09-19T16:40:20;16.73;;;6.05;;
79202;SDS011;68630;42.748;23.278;2023-09-19T16:45:24;8.65;;;5.22;;
79202;SDS011;68630;42.748;23.278;2023-09-19T16:47:57;24.87;;;5.40;;
79202;SDS011;68630;42.748;23.278;2023-09-19T16:55:37;9.63;;;5.83;;
79202;SDS011;68630;42.748;23.278;2023-09-19T16:58:36;14.83;;;5.50;;
79202;SDS011;68630;42.748;23.278;2023-09-19T17:01:06;14.23;;;5.60;;
79202;SDS011;68630;42.748;23.278;2023-09-19T17:28:45;12.98;;;5.70;;
79202;SDS011;68630;42.748;23.278;2023-09-19T17:57:38;9.08;;;5.05;;
79202;SDS011;68630;42.748;23.278;2023-09-19T18:14:32;10.23;;;5.35;;
79202;SDS011;68630;42.748;23.278;2023-09-19T18:22:11;8.68;;;5.40;;
79202;SDS011;68630;42.748;23.278;2023-09-19T18:30:49;10.35;;;5.97;;
79202;SDS011;68630;42.748;23.278;2023-09-19T18:33:22;25.50;;;5.80;;
79202;SDS011;68630;42.748;23.278;2023-09-19T18:35:46;17.32;;;6.25;;
79202;SDS011;68630;42.748;23.278;2023-09-19T18:53:37;11.40;;;6.25;;
79202;SDS011;68630;42.748;23.278;2023-09-19T18:56:07;11.33;;;6.45;;
79202;SDS011;68630;42.748;23.278;2023-09-19T18:58:41;12.35;;;6.50;;
79202;SDS011;68630;42.748;23.278;2023-09-19T19:14:01;13.48;;;6.85;;
79202;SDS011;68630;42.748;23.278;2023-09-19T19:16:37;17.75;;;6.78;;
79202;SDS011;68630;42.748;23.278;2023-09-19T19:19:05;11.70;;;6.95;;
79202;SDS011;68630;42.748;23.278;2023-09-19T19:24:07;22.25;;;7.08;;
79202;SDS011;68630;42.748;23.278;2023-09-19T19:37:46;15.98;;;6.58;;
79202;SDS011;68630;42.748;23.278;2023-09-19T19:40:14;17.75;;;6.00;;
79202;SDS011;68630;42.748;23.278;2023-09-19T19:42:42;9.00;;;6.10;;
79202;SDS011;68630;42.748;23.278;2023-09-19T19:47:53;17.35;;;7.47;;
79202;SDS011;68630;42.748;23.278;2023-09-19T19:58:17;16.48;;;5.47;;
79202;SDS011;68630;42.748;23.278;2023-09-19T20:10:07;16.65;;;6.95;;
79202;SDS011;68630;42.748;23.278;2023-09-19T23:07:45;12.55;;;6.10;;
